createdAt,value
2018-01-22T00:00:36.996Z,85.82
2018-01-22T00:03:04.395Z,86.08
2018-01-22T00:05:31.888Z,86.76
2018-01-22T00:07:59.289Z,87.02
2018-01-22T00:10:26.681Z,87.42
2018-01-22T00:12:54.089Z,87.65
2018-01-22T00:15:21.483Z,88.08
2018-01-22T00:17:48.927Z,88.62
2018-01-22T00:20:16.319Z,88.91
2018-01-22T00:22:43.733Z,89.06
2018-01-22T00:25:11.158Z,89.24
2018-01-22T00:27:38.567Z,89.44
2018-01-22T00:30:06.026Z,89.39
2018-01-22T00:32:33.480Z,89.51
2018-01-22T00:35:00.872Z,89.62
2018-01-22T00:37:28.483Z,89.61
2018-01-22T00:39:55.880Z,89.85
2018-01-22T00:42:23.308Z,90.01
2018-01-22T00:44:50.695Z,90.11
2018-01-22T00:47:18.109Z,90.17
2018-01-22T00:49:45.504Z,90.20
2018-01-22T00:52:12.916Z,90.51
2018-01-22T00:54:40.312Z,90.66
2018-01-22T00:57:07.721Z,90.62
2018-01-22T00:59:35.924Z,90.49
2018-01-22T01:02:03.333Z,90.68
2018-01-22T01:04:30.736Z,90.77
2018-01-22T01:06:58.146Z,90.81
2018-01-22T01:09:25.539Z,91.10
2018-01-22T01:11:53.148Z,91.26
2018-01-22T01:14:20.548Z,91.31
2018-01-22T01:16:47.948Z,91.33
2018-01-22T01:19:15.365Z,91.23
2018-01-22T01:21:42.764Z,91.30
2018-01-22T01:24:10.176Z,91.01
2018-01-22T01:26:37.578Z,90.92
2018-01-22T01:29:04.987Z,91.06
2018-01-22T01:31:32.390Z,91.11
2018-01-22T01:33:59.797Z,91.23
2018-01-22T01:36:27.193Z,91.16
2018-01-22T01:38:54.604Z,90.68
2018-01-22T01:41:22.000Z,90.40
2018-01-22T01:43:49.418Z,90.15
2018-01-22T01:46:16.936Z,89.89
2018-01-22T01:48:55.933Z,89.87
2018-01-22T01:51:23.433Z,89.68
2018-01-22T01:53:50.868Z,89.66
2018-01-22T01:56:18.267Z,89.43
2018-01-22T01:58:45.673Z,89.67
2018-01-22T02:01:13.076Z,90.06
2018-01-22T02:03:40.487Z,90.40
2018-01-22T02:06:07.881Z,90.55
2018-01-22T02:08:35.291Z,90.96
2018-01-22T02:11:02.685Z,91.02
2018-01-22T02:13:30.091Z,91.24
2018-01-22T02:15:57.492Z,91.36
2018-01-22T02:18:24.972Z,91.59
2018-01-22T02:20:52.372Z,91.65
2018-01-22T02:23:19.793Z,91.76
2018-01-22T02:25:47.193Z,91.77
2018-01-22T02:28:14.596Z,91.78
2018-01-22T02:30:42.287Z,91.95
2018-01-22T02:33:09.673Z,91.99
2018-01-22T02:35:37.097Z,92.02
2018-01-22T02:38:04.492Z,92.00
2018-01-22T02:40:32.016Z,92.11
2018-01-22T02:42:59.404Z,92.10
2018-01-22T02:45:26.820Z,92.26
2018-01-22T02:47:54.211Z,92.22
2018-01-22T02:50:21.628Z,92.22
2018-01-22T02:52:49.223Z,92.30
2018-01-22T02:55:16.639Z,92.37
2018-01-22T02:57:44.042Z,92.46
2018-01-22T03:00:11.453Z,92.49
2018-01-22T03:02:38.854Z,92.57
2018-01-22T03:05:06.260Z,92.59
2018-01-22T03:07:33.665Z,92.60
2018-01-22T03:10:01.345Z,92.63
2018-01-22T03:12:28.742Z,92.64
2018-01-22T03:14:56.144Z,92.70
2018-01-22T03:17:23.540Z,92.69
2018-01-22T03:19:50.952Z,92.74
2018-01-22T03:22:18.768Z,92.71
2018-01-22T03:24:46.292Z,92.75
2018-01-22T03:27:13.712Z,92.71
2018-01-22T03:29:41.176Z,92.68
2018-01-22T03:32:08.562Z,92.57
2018-01-22T03:34:35.968Z,92.69
2018-01-22T03:37:03.438Z,92.76
2018-01-22T03:39:30.931Z,92.90
2018-01-22T03:41:58.400Z,92.87
2018-01-22T03:44:25.891Z,92.97
2018-01-22T03:46:53.344Z,92.99
2018-01-22T03:49:20.776Z,93.06
2018-01-22T03:51:48.245Z,93.18
2018-01-22T03:54:15.645Z,93.25
2018-01-22T03:56:43.058Z,93.28
2018-01-22T03:59:10.456Z,93.24
2018-01-22T04:01:37.862Z,93.31
2018-01-22T04:04:05.441Z,93.32
2018-01-22T04:06:32.848Z,93.33
2018-01-22T04:09:00.256Z,93.42
2018-01-22T04:11:27.705Z,93.45
2018-01-22T04:13:55.104Z,93.61
2018-01-22T04:16:22.516Z,93.62
2018-01-22T04:18:49.918Z,93.65
2018-01-22T04:21:17.325Z,93.59
2018-01-22T04:23:44.737Z,93.58
2018-01-22T04:26:12.175Z,93.46
2018-01-22T04:28:39.574Z,93.56
2018-01-22T04:31:06.981Z,93.70
2018-01-22T04:33:34.460Z,93.78
2018-01-22T04:36:01.870Z,93.65
2018-01-22T04:38:29.270Z,93.68
2018-01-22T04:40:56.676Z,93.65
2018-01-22T04:43:24.077Z,93.64
2018-01-22T04:45:51.476Z,93.56
2018-01-22T04:48:18.885Z,93.67
2018-01-22T04:50:46.296Z,93.84
2018-01-22T04:53:13.696Z,93.92
2018-01-22T04:55:41.091Z,93.86
2018-01-22T04:58:08.506Z,93.80
2018-01-22T05:00:35.912Z,93.87
2018-01-22T05:03:03.320Z,93.83
2018-01-22T05:05:30.711Z,93.91
2018-01-22T05:07:58.123Z,93.99
2018-01-22T05:10:25.520Z,93.98
2018-01-22T05:12:52.931Z,93.97
2018-01-22T05:15:21.246Z,94.07
2018-01-22T05:17:48.660Z,94.01
2018-01-22T05:20:16.056Z,93.96
2018-01-22T05:22:43.545Z,94.11
2018-01-22T05:25:10.974Z,94.05
2018-01-22T05:27:38.511Z,94.10
2018-01-22T05:30:05.912Z,94.25
2018-01-22T05:32:33.327Z,94.32
2018-01-22T05:35:00.724Z,94.27
2018-01-22T05:37:28.140Z,94.31
2018-01-22T05:39:55.532Z,94.20
2018-01-22T05:42:22.941Z,94.26
2018-01-22T05:44:50.350Z,94.31
2018-01-22T05:47:17.758Z,94.14
2018-01-22T05:49:45.164Z,94.04
2018-01-22T05:52:12.612Z,94.17
2018-01-22T05:54:40.000Z,94.07
2018-01-22T05:57:07.424Z,94.14
2018-01-22T05:59:34.824Z,94.28
2018-01-22T06:02:02.232Z,94.30
2018-01-22T06:04:29.633Z,94.30
2018-01-22T06:06:57.136Z,94.19
2018-01-22T06:09:24.520Z,94.24
2018-01-22T06:11:51.917Z,94.20
2018-01-22T06:14:19.321Z,94.28
2018-01-22T06:16:46.724Z,94.32
2018-01-22T06:19:14.131Z,94.32
2018-01-22T06:21:41.537Z,94.28
2018-01-22T06:24:08.936Z,94.25
2018-01-22T06:26:36.342Z,94.18
2018-01-22T06:29:03.752Z,94.05
2018-01-22T06:31:31.153Z,93.80
2018-01-22T06:33:58.881Z,94.17
2018-01-22T06:36:26.311Z,93.77
2018-01-22T06:38:53.714Z,93.87
2018-01-22T06:41:21.113Z,93.99
2018-01-22T06:43:48.519Z,94.01
2018-01-22T06:46:15.932Z,93.96
2018-01-22T06:48:43.340Z,94.11
2018-01-22T06:51:10.731Z,94.05
2018-01-22T06:53:38.141Z,94.14
2018-01-22T06:56:05.548Z,94.23
2018-01-22T06:58:32.952Z,94.35
2018-01-22T07:01:00.352Z,94.19
2018-01-22T07:03:27.762Z,94.24
2018-01-22T07:05:55.184Z,94.29
2018-01-22T07:08:22.599Z,94.28
2018-01-22T07:10:49.996Z,94.18
2018-01-22T07:13:17.416Z,94.20
2018-01-22T07:15:44.831Z,94.36
2018-01-22T07:18:12.255Z,94.24
2018-01-22T07:20:39.651Z,94.25
2018-01-22T07:23:07.048Z,94.18
2018-01-22T07:25:34.474Z,94.23
2018-01-22T07:28:01.868Z,94.07
2018-01-22T07:30:29.320Z,94.20
2018-01-22T07:32:56.721Z,94.45
2018-01-22T07:35:24.132Z,94.48
2018-01-22T07:37:51.530Z,94.47
2018-01-22T07:40:18.928Z,94.41
2018-01-22T07:42:46.329Z,94.34
2018-01-22T07:45:13.744Z,94.40
2018-01-22T07:47:41.189Z,94.41
2018-01-22T07:50:08.700Z,94.43
2018-01-22T07:52:36.091Z,94.41
2018-01-22T07:55:03.499Z,94.43
2018-01-22T07:57:30.902Z,94.39
2018-01-22T07:59:58.311Z,94.48
2018-01-22T08:02:25.712Z,94.37
2018-01-22T08:04:53.155Z,94.17
2018-01-22T08:07:20.626Z,94.09
2018-01-22T08:09:48.041Z,94.23
2018-01-22T08:12:15.453Z,93.86
2018-01-22T08:14:43.012Z,94.02
2018-01-22T08:17:10.409Z,94.00
2018-01-22T08:19:37.929Z,93.87
2018-01-22T08:22:05.349Z,93.74
2018-01-22T08:24:32.751Z,93.68
2018-01-22T08:27:00.288Z,93.72
2018-01-22T08:29:27.692Z,93.67
2018-01-22T08:31:55.108Z,93.39
2018-01-22T08:34:22.543Z,93.36
2018-01-22T08:36:49.916Z,93.45
2018-01-22T08:39:17.366Z,93.34
2018-01-22T08:41:44.767Z,93.16
2018-01-22T08:44:12.165Z,92.94
2018-01-22T08:46:39.579Z,92.53
2018-01-22T08:49:06.976Z,92.56
2018-01-22T08:51:34.392Z,92.72
2018-01-22T08:54:01.792Z,92.75
2018-01-22T08:56:29.206Z,92.71
2018-01-22T08:58:56.606Z,92.51
2018-01-22T09:01:24.164Z,92.23
2018-01-22T09:03:51.569Z,92.00
2018-01-22T09:06:18.967Z,92.26
2018-01-22T09:08:46.366Z,92.13
2018-01-22T09:11:13.780Z,92.43
2018-01-22T09:13:41.195Z,92.35
2018-01-22T09:16:08.596Z,92.67
2018-01-22T09:18:36.002Z,92.70
2018-01-22T09:21:03.404Z,92.65
2018-01-22T09:23:30.802Z,92.67
2018-01-22T09:25:58.216Z,92.39
2018-01-22T09:28:25.621Z,92.36
2018-01-22T09:30:53.032Z,92.46
2018-01-22T09:33:20.433Z,92.15
2018-01-22T09:35:47.896Z,92.05
2018-01-22T09:38:15.283Z,92.42
2018-01-22T09:40:42.687Z,92.22
2018-01-22T09:43:10.104Z,92.35
2018-01-22T09:45:37.521Z,92.29
2018-01-22T09:48:05.020Z,92.05
2018-01-22T09:50:32.468Z,91.75
2018-01-22T09:52:59.876Z,91.82
2018-01-22T09:55:27.290Z,90.82
2018-01-22T09:57:54.804Z,91.28
2018-01-22T10:00:22.203Z,91.28
2018-01-22T10:02:49.622Z,91.37
2018-01-22T10:05:17.012Z,91.49
2018-01-22T10:07:44.919Z,91.61
2018-01-22T10:10:12.495Z,91.50
2018-01-22T10:12:39.923Z,91.38
2018-01-22T10:15:07.319Z,91.32
2018-01-22T10:17:34.724Z,90.96
2018-01-22T10:20:02.142Z,90.94
2018-01-22T10:22:29.544Z,90.21
2018-01-22T10:24:56.942Z,89.58
2018-01-22T10:27:24.359Z,90.09
2018-01-22T10:29:51.764Z,90.77
2018-01-22T10:32:19.173Z,91.31
2018-01-22T10:34:46.615Z,91.35
2018-01-22T10:37:14.033Z,91.31
2018-01-22T10:39:41.432Z,91.27
2018-01-22T10:42:09.014Z,91.16
2018-01-22T10:44:36.418Z,91.05
2018-01-22T10:47:03.830Z,90.80
2018-01-22T10:49:31.224Z,90.78
2018-01-22T10:51:58.632Z,91.01
2018-01-22T10:54:26.045Z,91.49
2018-01-22T10:56:53.440Z,91.59
2018-01-22T10:59:20.946Z,91.58
2018-01-22T11:01:48.332Z,91.44
2018-01-22T11:04:15.796Z,91.33
2018-01-22T11:06:43.171Z,91.04
2018-01-22T11:09:10.591Z,91.18
2018-01-22T11:11:37.992Z,91.67
2018-01-22T11:14:05.400Z,91.73
2018-01-22T11:16:32.860Z,92.71
2018-01-22T11:19:00.279Z,92.64
2018-01-22T11:21:27.677Z,93.08
2018-01-22T11:23:55.088Z,93.20
2018-01-22T11:26:22.493Z,92.84
2018-01-22T11:28:49.892Z,92.51
2018-01-22T11:31:17.296Z,92.48
2018-01-22T11:33:44.704Z,92.87
2018-01-22T11:36:12.109Z,93.14
2018-01-22T11:38:39.533Z,92.72
2018-01-22T11:41:06.936Z,92.36
2018-01-22T11:43:34.351Z,92.21
2018-01-22T11:46:01.747Z,92.35
2018-01-22T11:48:29.388Z,92.43
2018-01-22T11:50:56.884Z,92.27
2018-01-22T11:53:24.308Z,91.90
2018-01-22T11:55:51.727Z,91.72
2018-01-22T11:58:19.190Z,91.43
2018-01-22T12:00:46.596Z,91.15
2018-01-22T12:03:13.992Z,90.94
2018-01-22T12:05:41.396Z,90.95
2018-01-22T12:08:08.803Z,90.99
2018-01-22T12:10:36.256Z,91.12
2018-01-22T12:13:03.674Z,90.91
2018-01-22T12:15:31.132Z,90.52
2018-01-22T12:17:58.534Z,89.89
2018-01-22T12:20:25.944Z,89.71
2018-01-22T12:22:53.344Z,89.29
2018-01-22T12:25:20.756Z,89.17
2018-01-22T12:27:48.149Z,89.56
2018-01-22T12:30:15.561Z,89.36
2018-01-22T12:32:42.960Z,90.00
2018-01-22T12:35:10.377Z,90.36
2018-01-22T12:37:37.782Z,90.55
2018-01-22T12:40:05.194Z,90.45
2018-01-22T12:42:32.600Z,90.71
2018-01-22T12:45:00.009Z,91.18
2018-01-22T12:47:27.413Z,91.09
2018-01-22T12:49:54.837Z,91.09
2018-01-22T12:52:22.260Z,91.94
2018-01-22T12:54:49.680Z,92.29
2018-01-22T12:57:17.079Z,92.18
2018-01-22T12:59:44.483Z,91.94
2018-01-22T13:02:11.892Z,91.32
2018-01-22T13:04:39.312Z,91.20
2018-01-22T13:07:06.730Z,92.01
2018-01-22T13:09:34.128Z,92.22
2018-01-22T13:12:01.539Z,92.33
2018-01-22T13:14:28.955Z,92.50
2018-01-22T13:16:56.365Z,92.35
2018-01-22T13:19:23.776Z,92.19
2018-01-22T13:21:51.193Z,91.24
2018-01-22T13:24:18.603Z,92.06
2018-01-22T13:26:46.013Z,91.96
2018-01-22T13:29:13.460Z,91.70
2018-01-22T13:31:40.865Z,90.97
2018-01-22T13:34:08.285Z,89.83
2018-01-22T13:36:35.705Z,89.28
2018-01-22T13:39:03.122Z,89.86
2018-01-22T13:41:30.907Z,90.25
2018-01-22T13:43:58.309Z,90.02
2018-01-22T13:46:25.723Z,90.30
2018-01-22T13:48:53.139Z,90.18
2018-01-22T13:51:20.546Z,90.17
2018-01-22T13:53:47.988Z,90.62
2018-01-22T13:56:15.409Z,90.66
2018-01-22T13:58:42.804Z,90.54
2018-01-22T14:01:10.221Z,91.09
2018-01-22T14:03:37.624Z,91.29
2018-01-22T14:06:05.044Z,91.27
2018-01-22T14:08:32.449Z,91.40
2018-01-22T14:10:59.860Z,91.48
2018-01-22T14:13:27.332Z,91.20
2018-01-22T14:15:54.726Z,90.97
2018-01-22T14:18:22.120Z,91.17
2018-01-22T14:20:49.535Z,91.90
2018-01-22T14:23:16.960Z,92.24
2018-01-22T14:25:44.418Z,92.57
2018-01-22T14:28:11.837Z,92.62
2018-01-22T14:30:39.242Z,92.94
2018-01-22T14:33:06.657Z,93.64
2018-01-22T14:35:34.144Z,93.74
2018-01-22T14:38:01.543Z,93.67
2018-01-22T14:40:28.955Z,93.90
2018-01-22T14:42:56.368Z,94.04
2018-01-22T14:45:23.776Z,93.95
2018-01-22T14:47:51.191Z,93.28
2018-01-22T14:50:18.596Z,93.44
2018-01-22T14:52:45.997Z,93.40
2018-01-22T14:55:13.411Z,93.41
2018-01-22T14:57:40.872Z,93.58
2018-01-22T15:00:08.266Z,93.25
2018-01-22T15:02:35.676Z,92.54
2018-01-22T15:05:03.071Z,92.48
2018-01-22T15:07:30.481Z,92.40
2018-01-22T15:09:57.879Z,92.40
2018-01-22T15:12:25.306Z,92.00
2018-01-22T15:14:52.727Z,91.67
2018-01-22T15:17:20.157Z,91.44
2018-01-22T15:19:47.748Z,91.83
2018-01-22T15:22:15.170Z,91.90
2018-01-22T15:24:42.564Z,91.66
2018-01-22T15:27:09.978Z,91.66
2018-01-22T15:29:37.377Z,91.56
2018-01-22T15:32:04.785Z,91.29
2018-01-22T15:34:32.178Z,91.33
2018-01-22T15:36:59.575Z,91.28
2018-01-22T15:39:26.992Z,91.46
2018-01-22T15:41:54.399Z,91.86
2018-01-22T15:44:21.805Z,92.03
2018-01-22T15:46:49.204Z,91.95
2018-01-22T15:49:16.688Z,91.45
2018-01-22T15:51:44.096Z,90.84
2018-01-22T15:54:11.532Z,91.02
2018-01-22T15:56:38.920Z,91.13
2018-01-22T15:59:06.335Z,91.55
2018-01-22T16:01:33.740Z,91.71
2018-01-22T16:04:01.463Z,91.20
2018-01-22T16:06:28.857Z,91.66
2018-01-22T16:08:56.264Z,91.83
2018-01-22T16:11:23.677Z,91.96
2018-01-22T16:13:51.086Z,92.09
2018-01-22T16:16:18.488Z,92.27
2018-01-22T16:18:45.906Z,91.97
2018-01-22T16:21:13.301Z,91.77
2018-01-22T16:23:40.853Z,91.98
2018-01-22T16:26:08.252Z,92.47
2018-01-22T16:28:35.672Z,92.38
2018-01-22T16:31:03.064Z,92.10
2018-01-22T16:33:30.470Z,91.80
2018-01-22T16:35:57.870Z,91.62
2018-01-22T16:38:25.278Z,91.49
2018-01-22T16:40:52.672Z,91.60
2018-01-22T16:43:20.087Z,91.47
2018-01-22T16:45:47.477Z,90.89
2018-01-22T16:48:14.919Z,91.24
2018-01-22T16:50:42.315Z,91.18
2018-01-22T16:53:09.726Z,91.54
2018-01-22T16:55:37.135Z,91.68
2018-01-22T16:58:04.536Z,91.97
2018-01-22T17:00:31.952Z,92.41
2018-01-22T17:02:59.355Z,92.63
2018-01-22T17:05:26.761Z,92.81
2018-01-22T17:07:54.156Z,92.99
2018-01-22T17:10:21.642Z,93.02
2018-01-22T17:12:49.036Z,92.64
2018-01-22T17:15:16.449Z,92.46
2018-01-22T17:17:43.861Z,92.75
2018-01-22T17:20:11.271Z,93.23
2018-01-22T17:22:38.714Z,93.60
2018-01-22T17:25:06.113Z,93.38
2018-01-22T17:27:33.523Z,93.14
2018-01-22T17:30:00.989Z,93.32
2018-01-22T17:32:28.467Z,92.93
2018-01-22T17:34:55.883Z,93.13
2018-01-22T17:37:23.289Z,93.10
2018-01-22T17:39:50.713Z,93.16
2018-01-22T17:42:18.116Z,93.12
2018-01-22T17:44:45.575Z,92.94
2018-01-22T17:47:12.968Z,93.14
2018-01-22T17:49:40.396Z,93.22
2018-01-22T17:52:07.802Z,93.27
2018-01-22T17:54:35.200Z,93.36
2018-01-22T17:57:02.614Z,92.85
2018-01-22T17:59:30.588Z,92.89
2018-01-22T18:01:57.998Z,92.65
2018-01-22T18:04:25.662Z,92.36
2018-01-22T18:06:53.052Z,92.54
2018-01-22T18:09:20.465Z,92.50
2018-01-22T18:11:47.923Z,92.80
2018-01-22T18:14:15.275Z,93.48
2018-01-22T18:16:42.726Z,93.49
2018-01-22T18:19:10.182Z,93.62
2018-01-22T18:21:37.588Z,93.49
2018-01-22T18:24:05.000Z,93.11
2018-01-22T18:26:32.933Z,92.57
2018-01-22T18:29:00.324Z,92.29
2018-01-22T18:31:27.744Z,91.82
2018-01-22T18:33:55.204Z,91.61
2018-01-22T18:36:22.601Z,90.77
2018-01-22T18:38:50.040Z,90.40
2018-01-22T18:41:17.447Z,90.15
2018-01-22T18:43:44.843Z,89.47
2018-01-22T18:46:12.240Z,88.66
2018-01-22T18:48:39.850Z,88.34
2018-01-22T18:51:07.320Z,88.58
2018-01-22T18:53:34.762Z,88.70
2018-01-22T18:56:02.208Z,89.05
2018-01-22T18:58:29.603Z,89.24
2018-01-22T19:00:57.032Z,89.28
2018-01-22T19:03:24.500Z,89.46
2018-01-22T19:05:51.906Z,89.42
2018-01-22T19:08:19.312Z,89.94
2018-01-22T19:10:46.727Z,89.97
2018-01-22T19:13:14.125Z,89.97
2018-01-22T19:15:41.595Z,89.64
2018-01-22T19:18:08.998Z,89.81
2018-01-22T19:20:36.462Z,89.55
2018-01-22T19:23:03.955Z,89.36
2018-01-22T19:25:31.510Z,89.45
2018-01-22T19:27:58.908Z,89.27
2018-01-22T19:30:26.311Z,89.19
2018-01-22T19:32:53.782Z,89.26
2018-01-22T19:35:21.223Z,89.34
2018-01-22T19:37:48.810Z,89.16
2018-01-22T19:40:16.254Z,89.43
2018-01-22T19:42:43.658Z,89.36
2018-01-22T19:45:11.109Z,89.41
2018-01-22T19:47:38.501Z,89.40
2018-01-22T19:50:06.460Z,89.29
2018-01-22T19:52:33.868Z,89.56
2018-01-22T19:55:01.256Z,90.06
2018-01-22T19:57:28.728Z,89.85
2018-01-22T19:59:56.176Z,90.08
2018-01-22T20:02:23.617Z,90.36
2018-01-22T20:04:51.056Z,90.48
2018-01-22T20:07:18.640Z,90.67
2018-01-22T20:09:46.102Z,90.45
2018-01-22T20:12:14.448Z,90.25
2018-01-22T20:14:41.843Z,90.20
2018-01-22T20:17:09.316Z,89.71
2018-01-22T20:19:36.814Z,89.30
2018-01-22T20:22:05.049Z,89.43
2018-01-22T20:24:32.533Z,89.77
2018-01-22T20:26:59.979Z,89.65
2018-01-22T20:29:27.371Z,89.28
2018-01-22T20:31:55.092Z,89.12
2018-01-22T20:34:22.569Z,89.26
2018-01-22T20:36:50.008Z,89.47
2018-01-22T20:39:17.455Z,89.42
2018-01-22T20:41:44.888Z,89.78
2018-01-22T20:44:12.365Z,89.80
2018-01-22T20:46:39.851Z,89.58
2018-01-22T20:49:07.248Z,88.70
2018-01-22T20:51:35.420Z,88.55
2018-01-22T20:54:02.879Z,88.51
2018-01-22T20:56:30.328Z,88.43
2018-01-22T20:58:57.925Z,88.05
2018-01-22T21:01:25.316Z,88.07
2018-01-22T21:03:52.787Z,88.12
2018-01-22T21:06:20.226Z,88.28
2018-01-22T21:08:47.647Z,88.38
2018-01-22T21:11:15.075Z,88.66
2018-01-22T21:13:43.724Z,88.78
2018-01-22T21:16:11.644Z,88.57
2018-01-22T21:18:39.109Z,88.74
2018-01-22T21:21:06.555Z,88.89
2018-01-22T21:23:34.008Z,88.94
2018-01-22T21:26:01.419Z,89.40
2018-01-22T21:28:28.829Z,89.36
2018-01-22T21:30:56.336Z,89.35
2018-01-22T21:33:23.728Z,89.17
2018-01-22T21:35:51.326Z,88.44
2018-01-22T21:38:18.712Z,88.30
2018-01-22T21:40:46.477Z,88.60
2018-01-22T21:43:15.142Z,88.72
2018-01-22T21:45:43.511Z,88.32
2018-01-22T21:48:10.916Z,88.14
2018-01-22T21:50:38.378Z,87.53
2018-01-22T21:53:05.788Z,87.13
2018-01-22T21:55:33.234Z,85.70
2018-01-22T21:58:00.628Z,84.93
2018-01-22T22:02:40.960Z,84.26
2018-01-22T22:05:08.419Z,85.02
2018-01-22T22:07:35.851Z,84.37
2018-01-22T22:10:03.287Z,84.16
2018-01-22T22:12:30.692Z,83.83
2018-01-22T22:14:58.103Z,84.09
2018-01-22T22:17:25.510Z,83.66
2018-01-22T22:19:52.916Z,82.69
2018-01-22T22:22:20.346Z,82.15
2018-01-22T22:24:47.736Z,81.28
2018-01-22T22:27:15.140Z,81.52
2018-01-22T22:29:42.652Z,82.27
2018-01-22T22:32:10.084Z,81.70
2018-01-22T22:34:37.485Z,82.08
2018-01-22T22:37:04.884Z,82.42
2018-01-22T22:39:32.303Z,82.12
2018-01-22T22:41:59.747Z,82.30
2018-01-22T22:44:27.133Z,82.19
2018-01-22T22:46:54.546Z,82.42
2018-01-22T22:49:21.986Z,82.42
2018-01-22T22:51:49.456Z,82.41
2018-01-22T22:54:16.841Z,83.09
2018-01-22T22:56:44.255Z,82.61
2018-01-22T22:59:11.654Z,83.21
2018-01-22T23:01:39.068Z,82.52
2018-01-22T23:04:06.473Z,82.45
2018-01-22T23:06:33.883Z,81.00
2018-01-22T23:09:01.276Z,79.37
2018-01-22T23:11:28.679Z,80.07
2018-01-22T23:13:56.074Z,79.20
2018-01-22T23:16:23.566Z,76.94
2018-01-22T23:18:50.948Z,75.22
2018-01-22T23:21:18.355Z,73.75
2018-01-22T23:23:45.747Z,72.42
2018-01-22T23:26:13.187Z,72.05
2018-01-22T23:28:40.590Z,71.86
2018-01-22T23:31:07.988Z,71.92
2018-01-22T23:33:35.696Z,72.51
2018-01-22T23:36:03.096Z,72.61
2018-01-22T23:38:30.532Z,72.93
2018-01-22T23:40:57.935Z,72.99
2018-01-22T23:43:25.340Z,72.86
2018-01-22T23:45:52.732Z,73.52
2018-01-22T23:48:20.140Z,74.59
2018-01-22T23:50:47.536Z,75.31
2018-01-22T23:53:14.941Z,76.02
2018-01-22T23:55:42.423Z,77.45
2018-01-22T23:58:09.820Z,77.96
